sensor_id;sensor_type;location;lat;lon;timestamp;P1;durP1;ratioP1;P2;durP2;ratioP2
75220;SDS011;63802;53.232;6.570;2023-07-09T00:01:04;12.55;;;5.85;;
75220;SDS011;63802;53.232;6.570;2023-07-09T00:03:30;11.45;;;6.55;;
75220;SDS011;63802;53.232;6.570;2023-07-09T00:05:55;11.55;;;6.13;;
75220;SDS011;63802;53.232;6.570;2023-07-09T00:08:24;12.98;;;6.53;;
75220;SDS011;63802;53.232;6.570;2023-07-09T00:10:52;11.32;;;6.45;;
75220;SDS011;63802;53.232;6.570;2023-07-09T00:13:19;10.73;;;6.20;;
75220;SDS011;63802;53.232;6.570;2023-07-09T00:15:45;11.25;;;6.78;;
75220;SDS011;63802;53.232;6.570;2023-07-09T00:18:11;12.85;;;6.30;;
75220;SDS011;63802;53.232;6.570;2023-07-09T00:20:36;10.88;;;6.45;;
75220;SDS011;63802;53.232;6.570;2023-07-09T00:23:02;11.18;;;6.43;;
75220;SDS011;63802;53.232;6.570;2023-07-09T00:25:29;10.55;;;5.93;;
75220;SDS011;63802;53.232;6.570;2023-07-09T00:27:55;11.52;;;6.30;;
75220;SDS011;63802;53.232;6.570;2023-07-09T00:30:21;13.85;;;6.50;;
75220;SDS011;63802;53.232;6.570;2023-07-09T00:32:48;12.45;;;6.70;;
75220;SDS011;63802;53.232;6.570;2023-07-09T00:35:15;9.30;;;6.18;;
75220;SDS011;63802;53.232;6.570;2023-07-09T00:37:41;9.95;;;6.05;;
75220;SDS011;63802;53.232;6.570;2023-07-09T00:40:16;13.43;;;6.40;;
75220;SDS011;63802;53.232;6.570;2023-07-09T00:42:47;11.13;;;6.22;;
75220;SDS011;63802;53.232;6.570;2023-07-09T00:45:17;10.32;;;6.30;;
75220;SDS011;63802;53.232;6.570;2023-07-09T00:50:31;9.75;;;6.40;;
75220;SDS011;63802;53.232;6.570;2023-07-09T00:53:02;13.18;;;6.95;;
75220;SDS011;63802;53.232;6.570;2023-07-09T00:55:50;12.50;;;6.55;;
75220;SDS011;63802;53.232;6.570;2023-07-09T00:58:21;12.55;;;6.88;;
75220;SDS011;63802;53.232;6.570;2023-07-09T01:00:53;13.70;;;6.43;;
75220;SDS011;63802;53.232;6.570;2023-07-09T01:03:44;11.85;;;6.63;;
75220;SDS011;63802;53.232;6.570;2023-07-09T01:06:10;12.97;;;7.03;;
75220;SDS011;63802;53.232;6.570;2023-07-09T01:08:37;11.77;;;6.28;;
75220;SDS011;63802;53.232;6.570;2023-07-09T01:11:17;13.05;;;6.72;;
75220;SDS011;63802;53.232;6.570;2023-07-09T01:13:47;13.15;;;6.85;;
75220;SDS011;63802;53.232;6.570;2023-07-09T01:16:16;14.63;;;6.50;;
75220;SDS011;63802;53.232;6.570;2023-07-09T01:18:42;13.50;;;6.63;;
75220;SDS011;63802;53.232;6.570;2023-07-09T01:21:09;13.57;;;7.10;;
75220;SDS011;63802;53.232;6.570;2023-07-09T01:23:42;11.65;;;6.57;;
75220;SDS011;63802;53.232;6.570;2023-07-09T01:26:27;16.42;;;7.40;;
75220;SDS011;63802;53.232;6.570;2023-07-09T01:28:54;11.30;;;6.82;;
75220;SDS011;63802;53.232;6.570;2023-07-09T01:31:20;12.55;;;7.05;;
75220;SDS011;63802;53.232;6.570;2023-07-09T01:33:48;14.20;;;6.75;;
75220;SDS011;63802;53.232;6.570;2023-07-09T01:36:15;11.52;;;6.78;;
75220;SDS011;63802;53.232;6.570;2023-07-09T01:38:43;11.68;;;6.60;;
75220;SDS011;63802;53.232;6.570;2023-07-09T01:41:09;11.95;;;6.60;;
75220;SDS011;63802;53.232;6.570;2023-07-09T01:46:06;10.57;;;6.70;;
75220;SDS011;63802;53.232;6.570;2023-07-09T01:48:33;12.02;;;7.05;;
75220;SDS011;63802;53.232;6.570;2023-07-09T01:51:06;12.38;;;7.00;;
75220;SDS011;63802;53.232;6.570;2023-07-09T01:53:34;11.57;;;6.97;;
75220;SDS011;63802;53.232;6.570;2023-07-09T01:56:02;10.90;;;6.97;;
75220;SDS011;63802;53.232;6.570;2023-07-09T01:58:28;10.82;;;6.65;;
75220;SDS011;63802;53.232;6.570;2023-07-09T02:00:55;14.32;;;6.78;;
75220;SDS011;63802;53.232;6.570;2023-07-09T02:03:21;10.75;;;6.40;;
75220;SDS011;63802;53.232;6.570;2023-07-09T02:05:52;11.80;;;6.68;;
75220;SDS011;63802;53.232;6.570;2023-07-09T02:08:18;13.88;;;7.20;;
75220;SDS011;63802;53.232;6.570;2023-07-09T02:10:44;12.60;;;6.93;;
75220;SDS011;63802;53.232;6.570;2023-07-09T02:13:10;13.40;;;7.40;;
75220;SDS011;63802;53.232;6.570;2023-07-09T02:15:36;13.18;;;7.25;;
75220;SDS011;63802;53.232;6.570;2023-07-09T02:18:01;12.13;;;7.00;;
75220;SDS011;63802;53.232;6.570;2023-07-09T02:20:27;10.00;;;6.47;;
75220;SDS011;63802;53.232;6.570;2023-07-09T02:22:53;12.00;;;6.80;;
75220;SDS011;63802;53.232;6.570;2023-07-09T02:25:18;11.43;;;7.10;;
75220;SDS011;63802;53.232;6.570;2023-07-09T02:27:44;10.68;;;6.75;;
75220;SDS011;63802;53.232;6.570;2023-07-09T02:30:10;12.95;;;7.80;;
75220;SDS011;63802;53.232;6.570;2023-07-09T02:32:36;15.57;;;7.40;;
75220;SDS011;63802;53.232;6.570;2023-07-09T02:35:02;12.80;;;7.13;;
75220;SDS011;63802;53.232;6.570;2023-07-09T02:37:27;12.52;;;6.72;;
75220;SDS011;63802;53.232;6.570;2023-07-09T02:39:53;13.90;;;7.28;;
75220;SDS011;63802;53.232;6.570;2023-07-09T02:42:19;14.88;;;7.47;;
75220;SDS011;63802;53.232;6.570;2023-07-09T02:44:46;12.93;;;7.28;;
75220;SDS011;63802;53.232;6.570;2023-07-09T02:47:13;14.40;;;7.10;;
75220;SDS011;63802;53.232;6.570;2023-07-09T02:49:39;13.02;;;6.88;;
75220;SDS011;63802;53.232;6.570;2023-07-09T02:52:05;14.20;;;7.32;;
75220;SDS011;63802;53.232;6.570;2023-07-09T02:54:31;15.30;;;7.57;;
75220;SDS011;63802;53.232;6.570;2023-07-09T02:56:57;12.05;;;7.40;;
75220;SDS011;63802;53.232;6.570;2023-07-09T02:59:22;14.02;;;7.70;;
75220;SDS011;63802;53.232;6.570;2023-07-09T03:01:49;12.82;;;7.53;;
75220;SDS011;63802;53.232;6.570;2023-07-09T03:04:14;12.98;;;7.60;;
75220;SDS011;63802;53.232;6.570;2023-07-09T03:06:40;11.63;;;7.50;;
75220;SDS011;63802;53.232;6.570;2023-07-09T03:09:09;13.38;;;7.80;;
75220;SDS011;63802;53.232;6.570;2023-07-09T03:11:35;14.10;;;7.85;;
75220;SDS011;63802;53.232;6.570;2023-07-09T03:14:01;13.57;;;7.07;;
75220;SDS011;63802;53.232;6.570;2023-07-09T03:16:27;12.68;;;6.72;;
75220;SDS011;63802;53.232;6.570;2023-07-09T03:18:54;17.42;;;7.65;;
75220;SDS011;63802;53.232;6.570;2023-07-09T03:21:20;12.25;;;7.15;;
75220;SDS011;63802;53.232;6.570;2023-07-09T03:23:46;12.60;;;7.30;;
75220;SDS011;63802;53.232;6.570;2023-07-09T03:26:12;13.45;;;7.40;;
75220;SDS011;63802;53.232;6.570;2023-07-09T03:28:37;13.07;;;7.25;;
75220;SDS011;63802;53.232;6.570;2023-07-09T03:31:03;14.15;;;7.60;;
75220;SDS011;63802;53.232;6.570;2023-07-09T03:33:29;14.15;;;7.45;;
75220;SDS011;63802;53.232;6.570;2023-07-09T03:35:55;11.85;;;7.15;;
75220;SDS011;63802;53.232;6.570;2023-07-09T03:38:20;12.48;;;7.28;;
75220;SDS011;63802;53.232;6.570;2023-07-09T03:40:49;12.93;;;7.80;;
75220;SDS011;63802;53.232;6.570;2023-07-09T03:43:18;11.93;;;7.20;;
75220;SDS011;63802;53.232;6.570;2023-07-09T03:45:44;13.48;;;7.72;;
75220;SDS011;63802;53.232;6.570;2023-07-09T03:48:11;12.23;;;6.97;;
75220;SDS011;63802;53.232;6.570;2023-07-09T03:50:37;11.13;;;6.80;;
75220;SDS011;63802;53.232;6.570;2023-07-09T03:53:05;12.77;;;7.00;;
75220;SDS011;63802;53.232;6.570;2023-07-09T03:55:31;12.38;;;6.97;;
75220;SDS011;63802;53.232;6.570;2023-07-09T03:57:57;14.20;;;7.97;;
75220;SDS011;63802;53.232;6.570;2023-07-09T04:00:23;11.60;;;7.00;;
75220;SDS011;63802;53.232;6.570;2023-07-09T04:02:49;13.88;;;7.75;;
75220;SDS011;63802;53.232;6.570;2023-07-09T04:05:16;11.00;;;6.97;;
75220;SDS011;63802;53.232;6.570;2023-07-09T04:07:42;14.48;;;7.72;;
75220;SDS011;63802;53.232;6.570;2023-07-09T04:10:08;12.45;;;7.20;;
75220;SDS011;63802;53.232;6.570;2023-07-09T04:12:35;11.60;;;7.22;;
75220;SDS011;63802;53.232;6.570;2023-07-09T04:15:01;12.80;;;7.13;;
75220;SDS011;63802;53.232;6.570;2023-07-09T04:17:28;11.27;;;7.53;;
75220;SDS011;63802;53.232;6.570;2023-07-09T04:19:54;11.35;;;7.25;;
75220;SDS011;63802;53.232;6.570;2023-07-09T04:22:19;11.80;;;7.20;;
75220;SDS011;63802;53.232;6.570;2023-07-09T04:24:44;11.60;;;7.00;;
75220;SDS011;63802;53.232;6.570;2023-07-09T04:27:10;11.50;;;6.43;;
75220;SDS011;63802;53.232;6.570;2023-07-09T04:29:38;12.40;;;7.50;;
75220;SDS011;63802;53.232;6.570;2023-07-09T04:32:08;17.52;;;8.07;;
75220;SDS011;63802;53.232;6.570;2023-07-09T04:34:38;15.65;;;8.05;;
75220;SDS011;63802;53.232;6.570;2023-07-09T04:37:05;13.40;;;6.80;;
75220;SDS011;63802;53.232;6.570;2023-07-09T04:39:32;12.40;;;7.55;;
75220;SDS011;63802;53.232;6.570;2023-07-09T04:41:57;14.07;;;7.05;;
75220;SDS011;63802;53.232;6.570;2023-07-09T04:44:23;11.43;;;6.85;;
75220;SDS011;63802;53.232;6.570;2023-07-09T04:46:49;13.23;;;7.18;;
75220;SDS011;63802;53.232;6.570;2023-07-09T04:49:15;12.60;;;7.55;;
75220;SDS011;63802;53.232;6.570;2023-07-09T04:51:41;14.93;;;6.97;;
75220;SDS011;63802;53.232;6.570;2023-07-09T04:54:06;11.65;;;6.82;;
75220;SDS011;63802;53.232;6.570;2023-07-09T04:56:32;16.60;;;7.18;;
75220;SDS011;63802;53.232;6.570;2023-07-09T04:58:57;12.00;;;7.03;;
75220;SDS011;63802;53.232;6.570;2023-07-09T05:01:23;12.98;;;7.22;;
75220;SDS011;63802;53.232;6.570;2023-07-09T05:03:48;13.98;;;7.18;;
75220;SDS011;63802;53.232;6.570;2023-07-09T05:06:14;12.45;;;7.35;;
75220;SDS011;63802;53.232;6.570;2023-07-09T05:08:40;11.93;;;7.13;;
75220;SDS011;63802;53.232;6.570;2023-07-09T05:11:07;13.80;;;6.63;;
75220;SDS011;63802;53.232;6.570;2023-07-09T05:13:32;14.25;;;7.05;;
75220;SDS011;63802;53.232;6.570;2023-07-09T05:15:58;10.23;;;6.57;;
75220;SDS011;63802;53.232;6.570;2023-07-09T05:18:23;10.82;;;7.20;;
75220;SDS011;63802;53.232;6.570;2023-07-09T05:20:49;11.15;;;6.40;;
75220;SDS011;63802;53.232;6.570;2023-07-09T05:23:14;12.73;;;7.05;;
75220;SDS011;63802;53.232;6.570;2023-07-09T05:25:40;10.70;;;7.03;;
75220;SDS011;63802;53.232;6.570;2023-07-09T05:28:06;11.27;;;6.93;;
75220;SDS011;63802;53.232;6.570;2023-07-09T05:30:31;12.73;;;7.55;;
75220;SDS011;63802;53.232;6.570;2023-07-09T05:32:59;12.32;;;6.65;;
75220;SDS011;63802;53.232;6.570;2023-07-09T05:35:25;11.02;;;6.45;;
75220;SDS011;63802;53.232;6.570;2023-07-09T05:37:52;13.38;;;7.18;;
75220;SDS011;63802;53.232;6.570;2023-07-09T05:40:19;10.68;;;6.78;;
75220;SDS011;63802;53.232;6.570;2023-07-09T05:42:44;12.35;;;6.95;;
75220;SDS011;63802;53.232;6.570;2023-07-09T05:45:10;13.55;;;6.50;;
75220;SDS011;63802;53.232;6.570;2023-07-09T05:47:36;12.27;;;7.05;;
75220;SDS011;63802;53.232;6.570;2023-07-09T05:50:01;13.20;;;6.55;;
75220;SDS011;63802;53.232;6.570;2023-07-09T05:52:28;12.70;;;7.15;;
75220;SDS011;63802;53.232;6.570;2023-07-09T05:54:54;11.00;;;6.45;;
75220;SDS011;63802;53.232;6.570;2023-07-09T05:57:20;15.02;;;7.68;;
75220;SDS011;63802;53.232;6.570;2023-07-09T05:59:46;11.32;;;6.78;;
75220;SDS011;63802;53.232;6.570;2023-07-09T06:02:15;10.98;;;7.10;;
75220;SDS011;63802;53.232;6.570;2023-07-09T06:04:43;11.80;;;6.45;;
75220;SDS011;63802;53.232;6.570;2023-07-09T06:07:09;10.52;;;6.63;;
75220;SDS011;63802;53.232;6.570;2023-07-09T06:09:35;12.30;;;6.90;;
75220;SDS011;63802;53.232;6.570;2023-07-09T06:12:01;13.40;;;6.35;;
75220;SDS011;63802;53.232;6.570;2023-07-09T06:14:28;11.23;;;6.38;;
75220;SDS011;63802;53.232;6.570;2023-07-09T06:16:54;12.55;;;6.05;;
75220;SDS011;63802;53.232;6.570;2023-07-09T06:19:19;10.52;;;6.82;;
75220;SDS011;63802;53.232;6.570;2023-07-09T06:21:45;11.48;;;6.50;;
75220;SDS011;63802;53.232;6.570;2023-07-09T06:24:10;11.50;;;6.53;;
75220;SDS011;63802;53.232;6.570;2023-07-09T06:26:36;17.45;;;6.60;;
75220;SDS011;63802;53.232;6.570;2023-07-09T06:29:02;11.55;;;6.10;;
75220;SDS011;63802;53.232;6.570;2023-07-09T06:31:28;11.77;;;6.65;;
75220;SDS011;63802;53.232;6.570;2023-07-09T06:33:57;10.73;;;6.05;;
75220;SDS011;63802;53.232;6.570;2023-07-09T06:36:23;14.00;;;7.07;;
75220;SDS011;63802;53.232;6.570;2023-07-09T06:38:48;11.40;;;6.60;;
75220;SDS011;63802;53.232;6.570;2023-07-09T06:41:14;11.45;;;7.13;;
75220;SDS011;63802;53.232;6.570;2023-07-09T06:43:40;12.80;;;7.10;;
75220;SDS011;63802;53.232;6.570;2023-07-09T06:46:07;12.50;;;6.50;;
75220;SDS011;63802;53.232;6.570;2023-07-09T06:48:35;12.18;;;6.75;;
75220;SDS011;63802;53.232;6.570;2023-07-09T06:51:01;10.48;;;6.47;;
75220;SDS011;63802;53.232;6.570;2023-07-09T06:53:27;11.80;;;5.80;;
75220;SDS011;63802;53.232;6.570;2023-07-09T06:55:54;11.55;;;6.30;;
75220;SDS011;63802;53.232;6.570;2023-07-09T06:58:21;11.90;;;6.38;;
75220;SDS011;63802;53.232;6.570;2023-07-09T07:00:49;14.45;;;6.57;;
75220;SDS011;63802;53.232;6.570;2023-07-09T07:03:15;12.35;;;6.30;;
75220;SDS011;63802;53.232;6.570;2023-07-09T07:05:45;9.68;;;5.93;;
75220;SDS011;63802;53.232;6.570;2023-07-09T07:08:13;13.68;;;6.65;;
75220;SDS011;63802;53.232;6.570;2023-07-09T07:10:40;13.88;;;6.20;;
75220;SDS011;63802;53.232;6.570;2023-07-09T07:13:06;12.77;;;6.57;;
75220;SDS011;63802;53.232;6.570;2023-07-09T07:15:31;11.85;;;6.18;;
75220;SDS011;63802;53.232;6.570;2023-07-09T07:17:56;11.00;;;6.35;;
75220;SDS011;63802;53.232;6.570;2023-07-09T07:20:22;10.15;;;5.57;;
75220;SDS011;63802;53.232;6.570;2023-07-09T07:22:48;14.98;;;6.05;;
75220;SDS011;63802;53.232;6.570;2023-07-09T07:25:14;12.13;;;5.97;;
75220;SDS011;63802;53.232;6.570;2023-07-09T07:27:39;10.95;;;6.20;;
75220;SDS011;63802;53.232;6.570;2023-07-09T07:30:05;11.18;;;5.80;;
75220;SDS011;63802;53.232;6.570;2023-07-09T07:32:35;11.43;;;5.63;;
75220;SDS011;63802;53.232;6.570;2023-07-09T07:35:02;10.45;;;6.47;;
75220;SDS011;63802;53.232;6.570;2023-07-09T07:37:28;14.40;;;6.30;;
75220;SDS011;63802;53.232;6.570;2023-07-09T07:39:53;13.45;;;5.88;;
75220;SDS011;63802;53.232;6.570;2023-07-09T07:42:19;12.20;;;6.45;;
75220;SDS011;63802;53.232;6.570;2023-07-09T07:44:44;12.30;;;5.63;;
75220;SDS011;63802;53.232;6.570;2023-07-09T07:47:10;10.73;;;5.93;;
75220;SDS011;63802;53.232;6.570;2023-07-09T07:49:37;12.02;;;6.45;;
75220;SDS011;63802;53.232;6.570;2023-07-09T07:52:02;9.10;;;5.32;;
75220;SDS011;63802;53.232;6.570;2023-07-09T07:54:28;13.32;;;5.95;;
75220;SDS011;63802;53.232;6.570;2023-07-09T07:56:56;9.25;;;5.75;;
75220;SDS011;63802;53.232;6.570;2023-07-09T07:59:22;14.30;;;6.43;;
75220;SDS011;63802;53.232;6.570;2023-07-09T08:01:48;10.90;;;6.45;;
75220;SDS011;63802;53.232;6.570;2023-07-09T08:04:14;10.95;;;6.28;;
75220;SDS011;63802;53.232;6.570;2023-07-09T08:06:40;11.13;;;5.97;;
75220;SDS011;63802;53.232;6.570;2023-07-09T08:09:06;10.88;;;6.43;;
75220;SDS011;63802;53.232;6.570;2023-07-09T08:11:31;9.27;;;6.18;;
75220;SDS011;63802;53.232;6.570;2023-07-09T08:13:57;14.13;;;6.38;;
75220;SDS011;63802;53.232;6.570;2023-07-09T08:16:23;10.48;;;5.72;;
75220;SDS011;63802;53.232;6.570;2023-07-09T08:18:49;9.80;;;6.10;;
75220;SDS011;63802;53.232;6.570;2023-07-09T08:21:17;10.75;;;6.35;;
75220;SDS011;63802;53.232;6.570;2023-07-09T08:23:42;11.05;;;5.68;;
75220;SDS011;63802;53.232;6.570;2023-07-09T08:26:08;10.00;;;6.10;;
75220;SDS011;63802;53.232;6.570;2023-07-09T08:28:33;11.75;;;5.90;;
75220;SDS011;63802;53.232;6.570;2023-07-09T08:31:00;10.02;;;6.25;;
75220;SDS011;63802;53.232;6.570;2023-07-09T08:33:26;12.60;;;6.47;;
75220;SDS011;63802;53.232;6.570;2023-07-09T08:35:52;11.93;;;6.47;;
75220;SDS011;63802;53.232;6.570;2023-07-09T08:38:18;12.15;;;7.10;;
75220;SDS011;63802;53.232;6.570;2023-07-09T08:48:34;10.80;;;6.35;;
75220;SDS011;63802;53.232;6.570;2023-07-09T08:51:12;11.68;;;6.75;;
75220;SDS011;63802;53.232;6.570;2023-07-09T08:53:48;13.07;;;6.55;;
75220;SDS011;63802;53.232;6.570;2023-07-09T08:56:18;11.80;;;6.00;;
75220;SDS011;63802;53.232;6.570;2023-07-09T08:58:45;12.13;;;6.97;;
75220;SDS011;63802;53.232;6.570;2023-07-09T09:01:16;13.48;;;6.70;;
75220;SDS011;63802;53.232;6.570;2023-07-09T09:03:46;12.77;;;6.97;;
75220;SDS011;63802;53.232;6.570;2023-07-09T09:06:36;12.95;;;7.13;;
75220;SDS011;63802;53.232;6.570;2023-07-09T09:11:48;13.52;;;7.50;;
75220;SDS011;63802;53.232;6.570;2023-07-09T09:14:27;11.95;;;6.35;;
75220;SDS011;63802;53.232;6.570;2023-07-09T09:16:54;13.95;;;7.15;;
75220;SDS011;63802;53.232;6.570;2023-07-09T09:19:38;12.18;;;7.93;;
75220;SDS011;63802;53.232;6.570;2023-07-09T09:22:20;15.52;;;8.77;;
75220;SDS011;63802;53.232;6.570;2023-07-09T09:25:10;16.33;;;8.48;;
75220;SDS011;63802;53.232;6.570;2023-07-09T09:27:49;13.27;;;7.55;;
75220;SDS011;63802;53.232;6.570;2023-07-09T09:30:16;16.05;;;8.18;;
75220;SDS011;63802;53.232;6.570;2023-07-09T09:32:45;14.40;;;8.52;;
75220;SDS011;63802;53.232;6.570;2023-07-09T09:35:14;17.08;;;9.05;;
75220;SDS011;63802;53.232;6.570;2023-07-09T09:37:43;15.82;;;9.23;;
75220;SDS011;63802;53.232;6.570;2023-07-09T09:40:16;14.38;;;8.38;;
75220;SDS011;63802;53.232;6.570;2023-07-09T09:42:43;13.35;;;7.97;;
75220;SDS011;63802;53.232;6.570;2023-07-09T09:45:12;13.52;;;8.88;;
75220;SDS011;63802;53.232;6.570;2023-07-09T09:47:41;15.25;;;9.68;;
75220;SDS011;63802;53.232;6.570;2023-07-09T09:50:12;17.05;;;9.93;;
75220;SDS011;63802;53.232;6.570;2023-07-09T09:52:39;13.00;;;9.00;;
75220;SDS011;63802;53.232;6.570;2023-07-09T09:55:10;16.70;;;8.70;;
75220;SDS011;63802;53.232;6.570;2023-07-09T09:57:38;17.40;;;10.35;;
75220;SDS011;63802;53.232;6.570;2023-07-09T10:00:04;17.33;;;10.32;;
75220;SDS011;63802;53.232;6.570;2023-07-09T10:02:37;13.18;;;8.65;;
75220;SDS011;63802;53.232;6.570;2023-07-09T10:05:10;17.40;;;9.18;;
75220;SDS011;63802;53.232;6.570;2023-07-09T10:07:39;13.90;;;8.55;;
75220;SDS011;63802;53.232;6.570;2023-07-09T10:10:16;13.00;;;8.05;;
75220;SDS011;63802;53.232;6.570;2023-07-09T10:15:40;12.65;;;8.88;;
75220;SDS011;63802;53.232;6.570;2023-07-09T10:24:28;15.27;;;9.73;;
75220;SDS011;63802;53.232;6.570;2023-07-09T10:35:05;13.85;;;8.18;;
75220;SDS011;63802;53.232;6.570;2023-07-09T10:37:53;15.73;;;8.60;;
75220;SDS011;63802;53.232;6.570;2023-07-09T10:40:24;15.57;;;9.00;;
75220;SDS011;63802;53.232;6.570;2023-07-09T10:42:57;12.73;;;8.05;;
75220;SDS011;63802;53.232;6.570;2023-07-09T10:45:48;16.60;;;9.50;;
75220;SDS011;63802;53.232;6.570;2023-07-09T10:48:33;11.40;;;7.28;;
75220;SDS011;63802;53.232;6.570;2023-07-09T10:54:00;13.10;;;8.10;;
75220;SDS011;63802;53.232;6.570;2023-07-09T10:56:47;16.60;;;8.70;;
75220;SDS011;63802;53.232;6.570;2023-07-09T10:59:25;15.18;;;8.27;;
75220;SDS011;63802;53.232;6.570;2023-07-09T11:01:56;12.80;;;8.38;;
75220;SDS011;63802;53.232;6.570;2023-07-09T11:04:44;14.13;;;9.05;;
75220;SDS011;63802;53.232;6.570;2023-07-09T11:07:13;12.05;;;8.10;;
75220;SDS011;63802;53.232;6.570;2023-07-09T11:09:44;11.38;;;6.95;;
75220;SDS011;63802;53.232;6.570;2023-07-09T11:14:59;13.27;;;7.40;;
75220;SDS011;63802;53.232;6.570;2023-07-09T11:17:30;11.88;;;6.63;;
75220;SDS011;63802;53.232;6.570;2023-07-09T11:19:59;9.73;;;6.63;;
75220;SDS011;63802;53.232;6.570;2023-07-09T11:22:39;11.10;;;6.32;;
75220;SDS011;63802;53.232;6.570;2023-07-09T11:25:14;15.70;;;6.70;;
75220;SDS011;63802;53.232;6.570;2023-07-09T11:27:52;11.63;;;6.88;;
75220;SDS011;63802;53.232;6.570;2023-07-09T11:30:27;11.55;;;6.40;;
75220;SDS011;63802;53.232;6.570;2023-07-09T11:32:56;12.77;;;7.70;;
75220;SDS011;63802;53.232;6.570;2023-07-09T11:35:45;10.82;;;6.95;;
75220;SDS011;63802;53.232;6.570;2023-07-09T11:38:19;11.07;;;6.20;;
75220;SDS011;63802;53.232;6.570;2023-07-09T11:40:51;12.48;;;6.97;;
75220;SDS011;63802;53.232;6.570;2023-07-09T11:43:34;10.70;;;6.97;;
75220;SDS011;63802;53.232;6.570;2023-07-09T11:46:12;16.58;;;7.72;;
75220;SDS011;63802;53.232;6.570;2023-07-09T11:48:43;12.77;;;7.47;;
75220;SDS011;63802;53.232;6.570;2023-07-09T11:51:17;12.50;;;7.25;;
75220;SDS011;63802;53.232;6.570;2023-07-09T11:56:21;12.18;;;7.38;;
75220;SDS011;63802;53.232;6.570;2023-07-09T11:58:55;13.10;;;7.25;;
75220;SDS011;63802;53.232;6.570;2023-07-09T12:01:24;13.98;;;7.43;;
75220;SDS011;63802;53.232;6.570;2023-07-09T12:03:59;12.45;;;7.15;;
75220;SDS011;63802;53.232;6.570;2023-07-09T12:06:31;11.10;;;7.10;;
75220;SDS011;63802;53.232;6.570;2023-07-09T12:08:58;16.40;;;7.50;;
75220;SDS011;63802;53.232;6.570;2023-07-09T12:11:31;11.00;;;5.65;;
75220;SDS011;63802;53.232;6.570;2023-07-09T12:14:08;10.20;;;5.97;;
75220;SDS011;63802;53.232;6.570;2023-07-09T12:16:38;12.95;;;6.50;;
75220;SDS011;63802;53.232;6.570;2023-07-09T12:19:05;11.38;;;6.22;;
75220;SDS011;63802;53.232;6.570;2023-07-09T12:21:34;9.95;;;5.57;;
75220;SDS011;63802;53.232;6.570;2023-07-09T12:24:02;9.48;;;5.35;;
75220;SDS011;63802;53.232;6.570;2023-07-09T12:26:39;10.07;;;5.43;;
75220;SDS011;63802;53.232;6.570;2023-07-09T12:29:04;8.23;;;4.97;;
75220;SDS011;63802;53.232;6.570;2023-07-09T12:31:33;12.15;;;5.72;;
75220;SDS011;63802;53.232;6.570;2023-07-09T12:33:58;11.75;;;5.90;;
75220;SDS011;63802;53.232;6.570;2023-07-09T12:36:25;11.00;;;5.82;;
75220;SDS011;63802;53.232;6.570;2023-07-09T12:38:52;8.20;;;5.45;;
75220;SDS011;63802;53.232;6.570;2023-07-09T12:41:27;10.65;;;5.40;;
75220;SDS011;63802;53.232;6.570;2023-07-09T12:43:54;10.30;;;5.75;;
75220;SDS011;63802;53.232;6.570;2023-07-09T12:46:21;9.38;;;5.57;;
75220;SDS011;63802;53.232;6.570;2023-07-09T12:48:48;10.70;;;5.80;;
75220;SDS011;63802;53.232;6.570;2023-07-09T12:51:35;11.52;;;5.80;;
75220;SDS011;63802;53.232;6.570;2023-07-09T12:54:03;9.50;;;5.57;;
75220;SDS011;63802;53.232;6.570;2023-07-09T12:56:36;10.60;;;6.05;;
75220;SDS011;63802;53.232;6.570;2023-07-09T12:59:02;10.23;;;5.78;;
75220;SDS011;63802;53.232;6.570;2023-07-09T13:01:40;9.23;;;5.90;;
75220;SDS011;63802;53.232;6.570;2023-07-09T13:04:07;9.57;;;5.82;;
75220;SDS011;63802;53.232;6.570;2023-07-09T13:06:38;10.45;;;6.00;;
75220;SDS011;63802;53.232;6.570;2023-07-09T13:09:09;10.77;;;6.50;;
75220;SDS011;63802;53.232;6.570;2023-07-09T13:11:40;10.48;;;6.20;;
75220;SDS011;63802;53.232;6.570;2023-07-09T13:14:11;10.55;;;6.00;;
75220;SDS011;63802;53.232;6.570;2023-07-09T13:16:42;9.60;;;5.63;;
75220;SDS011;63802;53.232;6.570;2023-07-09T13:19:08;13.27;;;6.57;;
75220;SDS011;63802;53.232;6.570;2023-07-09T13:21:34;9.80;;;5.82;;
75220;SDS011;63802;53.232;6.570;2023-07-09T13:24:04;8.77;;;6.00;;
75220;SDS011;63802;53.232;6.570;2023-07-09T13:26:36;9.80;;;6.10;;
75220;SDS011;63802;53.232;6.570;2023-07-09T13:29:02;9.43;;;5.72;;
75220;SDS011;63802;53.232;6.570;2023-07-09T13:31:28;12.68;;;5.95;;
75220;SDS011;63802;53.232;6.570;2023-07-09T13:33:54;11.82;;;6.55;;
75220;SDS011;63802;53.232;6.570;2023-07-09T13:36:22;10.63;;;6.00;;
75220;SDS011;63802;53.232;6.570;2023-07-09T13:38:47;11.93;;;5.97;;
75220;SDS011;63802;53.232;6.570;2023-07-09T13:41:14;11.00;;;6.13;;
75220;SDS011;63802;53.232;6.570;2023-07-09T13:43:42;10.68;;;6.65;;
75220;SDS011;63802;53.232;6.570;2023-07-09T13:46:09;10.50;;;5.90;;
75220;SDS011;63802;53.232;6.570;2023-07-09T13:48:36;11.80;;;5.50;;
75220;SDS011;63802;53.232;6.570;2023-07-09T13:51:06;9.95;;;6.25;;
75220;SDS011;63802;53.232;6.570;2023-07-09T13:53:41;8.57;;;5.78;;
75220;SDS011;63802;53.232;6.570;2023-07-09T13:56:06;10.43;;;6.25;;
75220;SDS011;63802;53.232;6.570;2023-07-09T13:58:34;9.93;;;6.05;;
75220;SDS011;63802;53.232;6.570;2023-07-09T14:01:05;8.88;;;5.85;;
75220;SDS011;63802;53.232;6.570;2023-07-09T14:03:36;9.13;;;5.65;;
75220;SDS011;63802;53.232;6.570;2023-07-09T14:06:02;11.30;;;6.18;;
75220;SDS011;63802;53.232;6.570;2023-07-09T14:08:28;9.52;;;5.75;;
75220;SDS011;63802;53.232;6.570;2023-07-09T14:10:53;11.52;;;6.05;;
75220;SDS011;63802;53.232;6.570;2023-07-09T14:13:21;10.00;;;6.00;;
75220;SDS011;63802;53.232;6.570;2023-07-09T14:15:48;10.70;;;6.18;;
75220;SDS011;63802;53.232;6.570;2023-07-09T14:18:15;11.23;;;6.75;;
75220;SDS011;63802;53.232;6.570;2023-07-09T14:20:41;11.45;;;6.43;;
75220;SDS011;63802;53.232;6.570;2023-07-09T14:23:11;11.32;;;6.35;;
75220;SDS011;63802;53.232;6.570;2023-07-09T14:25:38;11.43;;;6.20;;
75220;SDS011;63802;53.232;6.570;2023-07-09T14:28:08;10.43;;;6.13;;
75220;SDS011;63802;53.232;6.570;2023-07-09T14:30:36;11.32;;;6.22;;
75220;SDS011;63802;53.232;6.570;2023-07-09T14:33:04;9.57;;;5.70;;
75220;SDS011;63802;53.232;6.570;2023-07-09T14:35:33;13.60;;;6.75;;
75220;SDS011;63802;53.232;6.570;2023-07-09T14:38:01;10.93;;;6.68;;
75220;SDS011;63802;53.232;6.570;2023-07-09T14:40:27;10.02;;;6.15;;
75220;SDS011;63802;53.232;6.570;2023-07-09T14:42:53;11.02;;;6.35;;
75220;SDS011;63802;53.232;6.570;2023-07-09T14:45:23;12.10;;;6.82;;
75220;SDS011;63802;53.232;6.570;2023-07-09T14:47:57;11.82;;;6.60;;
75220;SDS011;63802;53.232;6.570;2023-07-09T14:50:23;12.05;;;6.22;;
75220;SDS011;63802;53.232;6.570;2023-07-09T14:52:50;10.02;;;6.10;;
75220;SDS011;63802;53.232;6.570;2023-07-09T14:55:16;10.75;;;6.07;;
75220;SDS011;63802;53.232;6.570;2023-07-09T14:57:44;11.05;;;6.15;;
75220;SDS011;63802;53.232;6.570;2023-07-09T15:00:14;13.15;;;6.15;;
75220;SDS011;63802;53.232;6.570;2023-07-09T15:02:44;10.73;;;6.70;;
75220;SDS011;63802;53.232;6.570;2023-07-09T15:05:14;10.02;;;6.60;;
75220;SDS011;63802;53.232;6.570;2023-07-09T15:07:44;9.32;;;6.40;;
75220;SDS011;63802;53.232;6.570;2023-07-09T15:10:14;12.52;;;6.97;;
75220;SDS011;63802;53.232;6.570;2023-07-09T15:12:41;12.93;;;7.60;;
75220;SDS011;63802;53.232;6.570;2023-07-09T15:17:54;14.32;;;9.07;;
75220;SDS011;63802;53.232;6.570;2023-07-09T15:20:25;16.50;;;9.98;;
75220;SDS011;63802;53.232;6.570;2023-07-09T15:25:21;18.77;;;10.15;;
75220;SDS011;63802;53.232;6.570;2023-07-09T15:27:48;16.23;;;9.52;;
75220;SDS011;63802;53.232;6.570;2023-07-09T15:32:41;17.08;;;9.70;;